createdAt,value
2018-11-23T00:00:23.974Z,15.90
2018-11-23T00:02:59.816Z,14.60
2018-11-23T00:08:15.457Z,14.97
2018-11-23T00:10:50.345Z,16.13
2018-11-23T00:13:25.454Z,16.43
2018-11-23T00:16:00.712Z,15.90
2018-11-23T00:18:35.988Z,15.77
2018-11-23T00:21:10.428Z,15.47
2018-11-23T00:23:45.649Z,16.87
2018-11-23T00:26:20.729Z,14.87
2018-11-23T00:28:55.076Z,15.67
2018-11-23T00:31:29.686Z,16.57
2018-11-23T00:34:04.530Z,17.47
2018-11-23T00:36:38.868Z,14.07
2018-11-23T00:39:14.288Z,19.00
2018-11-23T00:41:49.590Z,16.23
2018-11-23T00:44:24.073Z,15.87
2018-11-23T00:46:59.065Z,16.27
2018-11-23T00:49:33.508Z,17.57
2018-11-23T00:52:08.564Z,16.60
2018-11-23T00:54:43.001Z,16.57
2018-11-23T00:57:18.161Z,17.20
2018-11-23T00:59:52.830Z,16.33
2018-11-23T01:02:27.773Z,16.50
2018-11-23T01:05:03.197Z,18.30
2018-11-23T01:07:37.933Z,15.90
2018-11-23T01:10:13.647Z,16.97
2018-11-23T01:12:55.255Z,16.73
2018-11-23T01:15:30.148Z,17.20
2018-11-23T01:18:06.696Z,16.00
2018-11-23T01:20:41.124Z,18.90
2018-11-23T01:23:16.476Z,17.13
2018-11-23T01:25:52.008Z,18.37
2018-11-23T01:28:26.641Z,17.20
2018-11-23T01:31:01.413Z,18.13
2018-11-23T01:33:35.773Z,16.90
2018-11-23T01:36:10.289Z,18.00
2018-11-23T01:38:44.817Z,17.40
2018-11-23T01:41:20.176Z,17.30
2018-11-23T01:43:54.721Z,16.87
2018-11-23T01:46:30.072Z,17.33
2018-11-23T01:49:04.592Z,16.53
2018-11-23T01:51:39.722Z,18.10
2018-11-23T01:54:14.081Z,19.60
2018-11-23T01:56:49.780Z,19.17
2018-11-23T01:59:24.840Z,19.37
2018-11-23T02:01:59.744Z,19.17
2018-11-23T02:04:34.652Z,16.57
2018-11-23T02:07:09.298Z,21.43
2018-11-23T02:09:43.808Z,19.90
2018-11-23T02:12:18.506Z,18.50
2018-11-23T02:14:53.786Z,16.77
2018-11-23T02:17:29.123Z,15.93
2018-11-23T02:20:04.141Z,19.50
2018-11-23T02:22:38.849Z,18.63
2018-11-23T02:25:14.165Z,19.47
2018-11-23T02:27:48.538Z,19.17
2018-11-23T02:30:25.105Z,19.03
2018-11-23T02:32:59.427Z,18.53
2018-11-23T02:35:34.725Z,18.13
2018-11-23T02:38:09.165Z,23.23
2018-11-23T02:40:44.285Z,18.87
2018-11-23T02:43:18.671Z,19.33
2018-11-23T02:45:53.808Z,19.60
2018-11-23T02:48:28.284Z,17.80
2018-11-23T02:51:03.092Z,18.57
2018-11-23T02:53:38.291Z,16.87
2018-11-23T02:56:13.759Z,16.97
2018-11-23T02:58:48.319Z,17.67
2018-11-23T03:01:23.374Z,17.10
2018-11-23T03:03:58.493Z,18.60
2018-11-23T03:06:33.141Z,19.90
2018-11-23T03:09:08.853Z,18.60
2018-11-23T03:11:43.459Z,19.07
2018-11-23T03:14:18.767Z,19.57
2018-11-23T03:17:10.218Z,14.97
2018-11-23T03:19:45.109Z,17.20
2018-11-23T03:22:19.630Z,16.97
2018-11-23T03:24:59.300Z,18.37
2018-11-23T03:27:33.896Z,16.87
2018-11-23T03:30:11.145Z,16.50
2018-11-23T03:32:47.204Z,17.27
2018-11-23T03:35:26.818Z,18.80
2018-11-23T03:38:01.338Z,17.17
2018-11-23T03:40:36.368Z,16.40
2018-11-23T03:43:11.236Z,16.90
2018-11-23T03:45:46.738Z,18.20
2018-11-23T03:48:21.104Z,16.70
2018-11-23T03:50:55.781Z,18.53
2018-11-23T03:53:30.930Z,20.40
2018-11-23T03:56:06.313Z,18.70
2018-11-23T03:58:41.746Z,17.43
2018-11-23T04:01:16.260Z,17.50
2018-11-23T04:03:51.725Z,17.97
2018-11-23T04:06:26.112Z,18.97
2018-11-23T04:09:00.609Z,19.87
2018-11-23T04:11:35.242Z,19.90
2018-11-23T04:14:09.773Z,18.63
2018-11-23T04:16:46.510Z,17.60
2018-11-23T04:19:21.682Z,19.43
2018-11-23T04:21:56.253Z,16.77
2018-11-23T04:24:31.857Z,17.60
2018-11-23T04:27:07.013Z,21.10
2018-11-23T04:29:41.400Z,17.00
2018-11-23T04:32:16.085Z,17.33
2018-11-23T04:34:50.609Z,17.47
2018-11-23T04:37:25.711Z,19.13
2018-11-23T04:40:00.732Z,16.33
2018-11-23T04:42:35.377Z,16.40
2018-11-23T04:45:11.220Z,19.53
2018-11-23T04:47:45.667Z,17.17
2018-11-23T04:50:20.024Z,16.90
2018-11-23T04:52:55.489Z,18.60
2018-11-23T04:55:30.427Z,16.50
2018-11-23T04:58:05.571Z,18.37
2018-11-23T05:00:39.880Z,16.20
2018-11-23T05:03:14.912Z,18.60
2018-11-23T05:05:49.362Z,16.33
2018-11-23T05:08:24.300Z,17.53
2018-11-23T05:10:58.796Z,19.47
2018-11-23T05:13:33.289Z,16.77
2018-11-23T05:16:08.657Z,18.10
2018-11-23T05:18:44.096Z,16.30
2018-11-23T05:21:19.101Z,17.00
2018-11-23T05:23:54.452Z,17.13
2018-11-23T05:26:29.629Z,14.60
2018-11-23T05:29:04.012Z,15.80
2018-11-23T05:31:38.433Z,15.53
2018-11-23T05:34:12.920Z,14.37
2018-11-23T05:36:48.289Z,16.40
2018-11-23T05:39:34.201Z,15.07
2018-11-23T05:42:08.696Z,16.97
2018-11-23T05:44:43.423Z,15.90
2018-11-23T05:47:18.754Z,19.07
2018-11-23T05:49:53.093Z,18.23
2018-11-23T05:52:28.157Z,15.67
2018-11-23T05:55:03.369Z,16.23
2018-11-23T05:57:38.848Z,15.67
2018-11-23T06:00:16.562Z,17.10
2018-11-23T06:02:51.821Z,17.37
2018-11-23T06:05:26.352Z,15.20
2018-11-23T06:10:41.413Z,16.70
2018-11-23T06:13:16.550Z,14.00
2018-11-23T06:15:52.093Z,15.83
2018-11-23T06:18:38.388Z,18.33
2018-11-23T06:21:12.950Z,16.80
2018-11-23T06:25:17.098Z,16.60
2018-11-23T06:27:52.112Z,17.03
2018-11-23T06:30:27.535Z,16.80
2018-11-23T06:33:13.619Z,18.83
2018-11-23T06:35:48.736Z,18.53
2018-11-23T06:38:23.345Z,15.87
2018-11-23T06:40:59.406Z,15.03
2018-11-23T06:43:33.080Z,15.40
2018-11-23T06:46:09.893Z,15.77
2018-11-23T06:48:44.443Z,16.87
2018-11-23T06:51:19.605Z,17.73
2018-11-23T06:53:55.802Z,18.47
2018-11-23T06:56:30.966Z,17.30
2018-11-23T06:59:06.049Z,17.60
2018-11-23T07:01:40.512Z,17.30
2018-11-23T07:04:15.708Z,19.20
2018-11-23T07:06:51.006Z,16.40
2018-11-23T07:09:25.436Z,16.40
2018-11-23T07:12:00.287Z,18.40
2018-11-23T07:14:34.618Z,15.80
2018-11-23T07:17:13.980Z,15.60
2018-11-23T07:19:49.365Z,15.83
2018-11-23T07:22:24.058Z,17.03
2018-11-23T07:24:59.032Z,16.70
2018-11-23T07:27:33.718Z,18.00
2018-11-23T07:30:23.700Z,18.57
2018-11-23T07:32:58.123Z,19.13
2018-11-23T07:35:33.151Z,17.47
2018-11-23T07:38:07.601Z,17.57
2018-11-23T07:40:54.618Z,18.87
2018-11-23T07:43:29.037Z,17.33
2018-11-23T07:46:04.141Z,15.00
2018-11-23T07:48:38.648Z,17.47
2018-11-23T07:51:14.565Z,18.40
2018-11-23T07:53:51.228Z,19.80
2018-11-23T07:56:25.749Z,19.27
2018-11-23T07:59:01.117Z,19.17
2018-11-23T08:01:35.612Z,16.50
2018-11-23T08:04:10.713Z,18.73
2018-11-23T08:06:45.086Z,19.50
2018-11-23T08:09:19.524Z,18.60
2018-11-23T08:11:53.968Z,16.50
2018-11-23T08:14:29.256Z,17.50
2018-11-23T08:17:11.909Z,18.70
2018-11-23T08:19:47.456Z,19.30
2018-11-23T08:22:22.257Z,21.83
2018-11-23T08:25:00.589Z,20.90
2018-11-23T08:27:36.114Z,19.77
2018-11-23T08:30:14.624Z,17.43
2018-11-23T08:32:49.729Z,19.70
2018-11-23T08:35:28.689Z,21.83
2018-11-23T08:38:03.076Z,22.33
2018-11-23T08:40:38.377Z,19.87
2018-11-23T08:43:12.833Z,20.60
2018-11-23T08:45:48.197Z,20.17
2018-11-23T08:48:23.208Z,20.67
2018-11-23T08:50:57.829Z,22.30
2018-11-23T08:56:15.239Z,22.47
2018-11-23T08:58:50.541Z,19.37
2018-11-23T09:01:25.091Z,19.43
2018-11-23T09:04:00.492Z,19.63
2018-11-23T09:06:34.964Z,22.30
2018-11-23T09:09:10.473Z,20.50
2018-11-23T09:11:45.176Z,18.90
2018-11-23T09:14:19.512Z,17.37
2018-11-23T09:17:10.155Z,19.57
2018-11-23T09:19:45.452Z,19.70
2018-11-23T09:22:23.541Z,19.47
2018-11-23T09:24:55.515Z,22.47
2018-11-23T09:27:30.661Z,18.80
2018-11-23T09:30:08.770Z,18.73
2018-11-23T09:32:43.687Z,19.20
2018-11-23T09:35:26.115Z,19.03
2018-11-23T09:38:01.094Z,16.57
2018-11-23T09:40:36.436Z,18.63
2018-11-23T09:43:10.781Z,20.00
2018-11-23T09:45:45.987Z,18.73
2018-11-23T09:48:20.504Z,17.77
2018-11-23T09:50:54.982Z,17.70
2018-11-23T09:53:30.272Z,20.67
2018-11-23T09:56:05.341Z,16.67
2018-11-23T09:58:43.718Z,21.47
2018-11-23T10:01:14.993Z,16.07
2018-11-23T10:03:50.205Z,14.70
2018-11-23T10:06:24.723Z,16.77
2018-11-23T10:08:59.223Z,16.60
2018-11-23T10:11:33.710Z,14.70
2018-11-23T10:14:08.872Z,16.27
2018-11-23T10:16:43.323Z,17.50
2018-11-23T10:19:26.256Z,18.37
2018-11-23T10:22:00.772Z,18.17
2018-11-23T10:24:35.072Z,18.23
2018-11-23T10:27:10.480Z,16.10
2018-11-23T10:29:44.953Z,16.00
2018-11-23T10:32:20.329Z,15.13
2018-11-23T10:34:55.736Z,16.97
2018-11-23T10:37:30.764Z,16.80
2018-11-23T10:40:09.119Z,16.57
2018-11-23T10:42:43.997Z,14.20
2018-11-23T10:45:26.191Z,16.37
2018-11-23T10:48:02.762Z,16.53
2018-11-23T10:50:38.788Z,18.13
2018-11-23T10:53:15.108Z,18.20
2018-11-23T10:55:50.144Z,17.60
2018-11-23T10:58:25.264Z,15.37
2018-11-23T11:01:05.216Z,13.97
2018-11-23T11:05:48.773Z,17.13
2018-11-23T11:08:23.302Z,15.57
2018-11-23T11:10:58.009Z,15.40
2018-11-23T11:13:32.392Z,15.83
2018-11-23T11:16:07.759Z,16.53
2018-11-23T11:18:43.104Z,17.17
2018-11-23T11:21:17.466Z,16.33
2018-11-23T11:23:52.437Z,15.07
2018-11-23T11:26:27.704Z,14.70
2018-11-23T11:29:02.196Z,16.70
2018-11-23T11:31:36.944Z,15.30
2018-11-23T11:34:11.580Z,13.50
2018-11-23T11:36:46.789Z,14.50
2018-11-23T11:39:37.429Z,17.60
2018-11-23T11:42:12.264Z,13.83
2018-11-23T11:44:46.572Z,15.00
2018-11-23T11:47:21.512Z,17.80
2018-11-23T11:49:59.141Z,14.17
2018-11-23T11:52:31.329Z,13.57
2018-11-23T11:55:08.049Z,15.30
2018-11-23T11:57:43.362Z,16.20
2018-11-23T12:00:21.415Z,14.97
2018-11-23T12:02:56.741Z,14.33
2018-11-23T12:05:31.076Z,12.87
2018-11-23T12:08:05.952Z,14.07
2018-11-23T12:10:40.376Z,15.20
2018-11-23T12:13:15.025Z,16.63
2018-11-23T12:15:49.470Z,14.50
2018-11-23T12:18:24.888Z,14.30
2018-11-23T12:20:59.396Z,15.10
2018-11-23T12:23:33.798Z,15.03
2018-11-23T12:26:09.068Z,13.77
2018-11-23T12:28:43.673Z,14.60
2018-11-23T12:31:18.026Z,15.47
2018-11-23T12:33:52.709Z,14.53
2018-11-23T12:36:28.413Z,15.10
2018-11-23T12:39:03.045Z,13.17
2018-11-23T12:41:38.122Z,13.67
2018-11-23T12:44:12.649Z,14.30
2018-11-23T12:46:48.083Z,14.20
2018-11-23T12:49:22.627Z,13.37
2018-11-23T12:51:57.812Z,14.17
2018-11-23T12:54:33.244Z,13.57
2018-11-23T12:59:47.987Z,14.77
2018-11-23T13:02:23.112Z,14.87
2018-11-23T13:04:58.619Z,15.50
2018-11-23T13:07:33.326Z,13.70
2018-11-23T13:10:07.769Z,14.93
2018-11-23T13:12:42.184Z,15.90
2018-11-23T13:15:16.783Z,13.73
2018-11-23T13:17:52.422Z,13.77
2018-11-23T13:20:27.499Z,11.40
2018-11-23T13:23:02.013Z,13.53
2018-11-23T13:25:36.617Z,13.37
2018-11-23T13:28:11.591Z,13.90
2018-11-23T13:30:45.989Z,12.20
2018-11-23T13:33:20.612Z,13.13
2018-11-23T13:35:55.958Z,13.30
2018-11-23T13:38:31.072Z,15.10
2018-11-23T13:41:06.535Z,12.37
2018-11-23T13:43:40.865Z,13.43
2018-11-23T13:46:16.260Z,15.17
2018-11-23T13:48:50.617Z,12.23
2018-11-23T13:51:26.144Z,15.50
2018-11-23T13:54:01.377Z,15.03
2018-11-23T13:56:36.336Z,15.80
2018-11-23T13:59:11.591Z,12.90
2018-11-23T14:01:46.349Z,14.50
2018-11-23T14:04:21.721Z,13.60
2018-11-23T14:06:56.368Z,15.30
2018-11-23T14:09:31.589Z,13.53
2018-11-23T14:12:06.185Z,13.13
2018-11-23T14:14:40.689Z,13.67
2018-11-23T14:17:16.281Z,17.17
2018-11-23T14:19:51.862Z,14.67
2018-11-23T14:22:26.759Z,14.60
2018-11-23T14:25:01.190Z,15.27
2018-11-23T14:27:36.875Z,14.60
2018-11-23T14:30:14.058Z,12.63
2018-11-23T14:32:49.200Z,13.20
2018-11-23T14:35:31.322Z,14.67
2018-11-23T14:38:05.912Z,13.20
2018-11-23T14:40:40.909Z,15.83
2018-11-23T14:43:15.569Z,12.87
2018-11-23T14:45:50.759Z,13.90
2018-11-23T14:48:25.290Z,14.33
2018-11-23T14:50:59.912Z,14.00
2018-11-23T14:53:34.872Z,13.80
2018-11-23T14:56:10.340Z,14.67
2018-11-23T14:58:44.664Z,14.63
2018-11-23T15:01:19.664Z,14.30
2018-11-23T15:03:54.737Z,11.60
2018-11-23T15:06:29.294Z,12.70
2018-11-23T15:09:04.672Z,14.43
2018-11-23T15:11:39.606Z,13.90
2018-11-23T15:14:13.931Z,13.53
2018-11-23T15:16:48.349Z,14.03
2018-11-23T15:19:23.489Z,13.67
2018-11-23T15:21:58.029Z,14.10
2018-11-23T15:24:32.567Z,13.67
2018-11-23T15:27:07.636Z,13.80
2018-11-23T15:29:42.146Z,13.83
2018-11-23T15:32:16.602Z,13.63
2018-11-23T15:34:51.186Z,15.93
2018-11-23T15:37:26.788Z,12.63
2018-11-23T15:40:02.627Z,13.50
2018-11-23T15:42:37.266Z,12.47
2018-11-23T15:45:14.545Z,13.47
2018-11-23T15:47:49.957Z,13.07
2018-11-23T15:50:25.950Z,12.90
2018-11-23T15:53:01.024Z,14.60
2018-11-23T15:55:38.516Z,14.03
2018-11-23T15:58:14.320Z,13.20
2018-11-23T16:00:53.525Z,13.50
2018-11-23T16:03:29.009Z,13.60
2018-11-23T16:06:03.404Z,14.80
2018-11-23T16:08:37.796Z,14.73
2018-11-23T16:11:12.144Z,13.90
2018-11-23T16:13:47.117Z,13.33
2018-11-23T16:16:21.709Z,13.97
2018-11-23T16:18:57.445Z,13.37
2018-11-23T16:21:31.825Z,12.10
2018-11-23T16:24:07.075Z,14.80
2018-11-23T16:26:42.491Z,17.00
2018-11-23T16:29:17.067Z,13.40
2018-11-23T16:31:52.648Z,14.40
2018-11-23T16:34:27.297Z,14.97
2018-11-23T16:37:02.501Z,13.57
2018-11-23T16:39:46.372Z,12.27
2018-11-23T16:42:20.867Z,16.90
2018-11-23T16:44:55.452Z,13.27
2018-11-23T16:47:31.823Z,14.13
2018-11-23T16:50:07.487Z,13.43
2018-11-23T16:52:43.946Z,13.87
2018-11-23T16:55:20.783Z,14.10
2018-11-23T16:57:58.837Z,14.53
2018-11-23T17:00:36.100Z,12.30
2018-11-23T17:03:17.227Z,14.57
2018-11-23T17:05:55.353Z,14.80
2018-11-23T17:08:30.968Z,14.73
2018-11-23T17:11:05.569Z,14.53
2018-11-23T17:13:40.916Z,14.97
2018-11-23T17:16:16.240Z,16.83
2018-11-23T17:18:52.089Z,14.30
2018-11-23T17:21:27.848Z,17.07
2018-11-23T17:24:03.154Z,14.87
2018-11-23T17:26:40.024Z,14.57
2018-11-23T17:29:18.328Z,16.10
2018-11-23T17:31:51.795Z,14.70
2018-11-23T17:34:27.789Z,17.40
2018-11-23T17:37:05.435Z,15.80
2018-11-23T17:39:47.577Z,18.97
2018-11-23T17:42:22.601Z,17.20
2018-11-23T17:44:58.127Z,16.37
2018-11-23T17:47:34.858Z,15.43
2018-11-23T17:50:11.544Z,16.23
2018-11-23T17:52:50.537Z,15.47
2018-11-23T17:55:26.933Z,14.93
2018-11-23T17:58:02.259Z,14.07
2018-11-23T18:00:39.282Z,15.33
2018-11-23T18:03:13.499Z,14.03
2018-11-23T18:05:48.133Z,16.03
2018-11-23T18:08:22.612Z,16.17
2018-11-23T18:10:57.129Z,16.20
2018-11-23T18:13:31.552Z,15.50
2018-11-23T18:16:06.488Z,13.87
2018-11-23T18:18:42.979Z,16.63
2018-11-23T18:21:18.282Z,15.60
2018-11-23T18:23:52.977Z,14.90
2018-11-23T18:26:28.769Z,14.70
2018-11-23T18:29:03.315Z,15.90
2018-11-23T18:31:38.049Z,14.20
2018-11-23T18:34:12.635Z,15.90
2018-11-23T18:36:48.392Z,13.57
2018-11-23T18:39:22.880Z,15.03
2018-11-23T18:41:58.997Z,16.70
2018-11-23T18:44:33.430Z,15.93
2018-11-23T18:47:10.416Z,16.43
2018-11-23T18:49:44.962Z,14.50
2018-11-23T18:52:21.511Z,15.20
2018-11-23T18:54:58.313Z,16.90
2018-11-23T18:57:32.956Z,15.00
2018-11-23T19:00:13.758Z,15.90
2018-11-23T19:02:50.931Z,14.23
2018-11-23T19:05:27.696Z,16.10
2018-11-23T19:08:02.227Z,16.30
2018-11-23T19:10:36.942Z,15.03
2018-11-23T19:13:11.365Z,17.77
2018-11-23T19:15:46.083Z,15.20
2018-11-23T19:18:22.701Z,15.00
2018-11-23T19:20:57.152Z,15.50
2018-11-23T19:23:33.071Z,13.90
2018-11-23T19:26:09.393Z,16.50
2018-11-23T19:28:43.824Z,15.17
2018-11-23T19:31:18.784Z,14.50
2018-11-23T19:33:59.130Z,14.90
2018-11-23T19:36:28.989Z,16.80
2018-11-23T19:39:03.549Z,14.80
2018-11-23T19:41:38.827Z,16.20
2018-11-23T19:44:13.332Z,16.27
2018-11-23T19:46:49.720Z,17.93
2018-11-23T19:49:24.724Z,17.57
2018-11-23T19:52:00.917Z,17.07
2018-11-23T19:54:36.708Z,15.87
2018-11-23T19:57:11.333Z,15.90
2018-11-23T19:59:46.078Z,16.83
2018-11-23T20:02:21.465Z,16.27
2018-11-23T20:04:57.428Z,18.17
2018-11-23T20:07:31.906Z,18.03
2018-11-23T20:10:10.697Z,15.70
2018-11-23T20:12:46.233Z,16.50
2018-11-23T20:15:20.770Z,14.90
2018-11-23T20:17:55.997Z,14.47
2018-11-23T20:20:31.961Z,17.90
2018-11-23T20:23:07.188Z,16.07
2018-11-23T20:25:41.742Z,17.33
2018-11-23T20:28:18.201Z,16.00
2018-11-23T20:30:52.603Z,16.63
2018-11-23T20:33:27.015Z,16.77
2018-11-23T20:36:02.145Z,18.93
2018-11-23T20:38:36.736Z,15.40
2018-11-23T20:41:11.806Z,17.70
2018-11-23T20:43:46.248Z,16.10
2018-11-23T20:46:22.606Z,18.77
2018-11-23T20:48:57.170Z,18.53
2018-11-23T20:51:34.217Z,19.10
2018-11-23T20:54:10.863Z,18.27
2018-11-23T20:56:45.495Z,17.50
2018-11-23T20:59:20.157Z,16.10
2018-11-23T21:02:00.202Z,18.30
2018-11-23T21:04:36.085Z,16.90
2018-11-23T21:07:10.497Z,17.80
2018-11-23T21:09:45.341Z,18.53
2018-11-23T21:12:19.852Z,16.57
2018-11-23T21:14:54.344Z,18.40
2018-11-23T21:17:30.345Z,16.23
2018-11-23T21:20:06.669Z,15.00
2018-11-23T21:22:41.270Z,18.93
2018-11-23T21:25:16.124Z,16.73
2018-11-23T21:27:51.573Z,19.03
2018-11-23T21:30:26.149Z,18.33
2018-11-23T21:33:00.672Z,19.43
2018-11-23T21:35:35.926Z,18.20
2018-11-23T21:38:10.380Z,18.53
2018-11-23T21:40:45.995Z,16.10
2018-11-23T21:43:20.497Z,18.23
2018-11-23T21:45:58.239Z,19.17
2018-11-23T21:48:32.644Z,19.07
2018-11-23T21:51:06.960Z,19.67
2018-11-23T21:53:48.716Z,17.83
2018-11-23T21:56:23.263Z,15.83
2018-11-23T21:58:57.946Z,18.67
2018-11-23T22:01:32.885Z,18.30
2018-11-23T22:04:07.954Z,17.93
2018-11-23T22:06:42.379Z,17.50
2018-11-23T22:09:16.717Z,17.40
2018-11-23T22:11:52.416Z,17.80
2018-11-23T22:14:25.639Z,17.23
2018-11-23T22:17:13.154Z,18.73
2018-11-23T22:19:48.648Z,18.17
2018-11-23T22:22:22.946Z,17.57
2018-11-23T22:24:57.434Z,16.00
2018-11-23T22:27:33.019Z,15.10
2018-11-23T22:30:12.610Z,17.00
2018-11-23T22:32:47.040Z,17.17
2018-11-23T22:38:02.421Z,18.47
2018-11-23T22:40:37.638Z,18.30
2018-11-23T22:43:12.133Z,18.17
2018-11-23T22:45:46.814Z,17.33
2018-11-23T22:48:22.023Z,16.60
2018-11-23T22:50:56.673Z,17.43
2018-11-23T22:53:31.992Z,16.40
2018-11-23T22:56:07.372Z,16.17
2018-11-23T22:58:41.808Z,16.50
2018-11-23T23:01:18.313Z,14.90
2018-11-23T23:03:53.551Z,15.17
2018-11-23T23:06:28.350Z,15.83
2018-11-23T23:09:02.922Z,14.80
2018-11-23T23:11:37.878Z,14.80
2018-11-23T23:14:12.405Z,15.40
2018-11-23T23:16:46.915Z,16.77
2018-11-23T23:19:22.080Z,16.47
2018-11-23T23:21:56.443Z,15.60
2018-11-23T23:24:30.861Z,17.27
2018-11-23T23:27:06.045Z,15.60
2018-11-23T23:29:40.509Z,16.13
2018-11-23T23:32:15.023Z,13.23
2018-11-23T23:34:49.461Z,14.80
2018-11-23T23:37:24.759Z,15.03
2018-11-23T23:40:08.523Z,14.97
2018-11-23T23:42:43.112Z,15.70
2018-11-23T23:45:18.945Z,14.10
2018-11-23T23:47:54.300Z,13.57
2018-11-23T23:50:28.808Z,16.53
2018-11-23T23:53:03.749Z,14.13
2018-11-23T23:55:38.893Z,13.63
2018-11-23T23:58:13.340Z,13.73
